< < Back
Terminal Aerodrome Forecast


Current Version              Previous Versions:   1  2  3  4  5  6  7  8  9  

Terminal Aerodrome Forecast

692
FTAK31 PAJN 010618 AAA
TAFAHN
TAF AMD
PAHN 010618Z 0106/0206 10005KT P6SM VCSH BKN070 BKN100
      TEMPO 0106/0110 BKN015 OVC070
     FM011000 VRB03KT P6SM VCSH SCT015 OVC070
     FM011900 13005KT P6SM VCSH BKN050 OVC070
     FM012200 12008KT P6SM BKN050 BKN070
      AMD LTD TO CLD VIS AND WIND=



Latest METAR

371
SAUS70 KWBC 011400 RRE
MTRAHN
METAR KAHN 011351Z 09005KT 10SM BKN046 OVC060 25/17 A2999 RMK AO2 SLP148
T02500167


USA.gov is the U.S. government's official web portal to all federal, state and local government web resources and services.